| State | Missouri | Latest | Low (48 cfs) | |
| River | Roubidoux Creek | Rating | Observed | Estimated |
| Updated | 2026-05-10 6:30 (1 hour ago) | Flood - The river is flooding. Obstacles can be treacherous or deadly. The river should be avoided at this stage for casual trips and definitely for the inexperienced. Trips should be attempted only with protective gear and equipment.Flood | (none) | 882 |
| Discharge | 48 cfs (median: 137 cfs) | High - The river is high and potentially dangerous, especially for the young and / or inexperienced. Normal stream obstacles are sometimes difficult to navigate. Extended distances can be attempted, but canoe travel may not be advisable.High | (none) | 314 |
| Height | 2.75 feet | Good - Conditions are ideal for a canoe or kayak. Boats typically will drag on fewer than one-quarter of riffles, if at all, and portages are unnecessary or rare. Normal float lengths can be attempted without a problem.Good | (none) | 133 |
| Trend | Falling (falling over 24 hours) | Low - River is low but can still be floated. Some riffles are okay but most come with significant dragging and might need a portage. Float lengths should be reduced to accommodate low flow, dragging, and portages.Low | (none) | 44 |
| USGS | USGS Site ( Duck Duck Go Maps) | Poor - River is too low to float comfortably. Most or all riffles will drag or must be portaged and some obstacles (such as slick shelf rock) cause undue problems. Avoid the river at this stage for casual paddling trips.Poor | (none) | 11 |
| Date | Start | End | Distance | Condition | Discharge | Height | Fishing | Details |
|---|
A total of 0 rows are displayed.
BLG - Bluegill
CCF - Channel Catfish
CP - Chain Pickerel
FWD - Freshwater Drum
GSF - Green Sunfish
KSB - Kentucky Spotted Bass
LMB - Largemouth Bass
LSF - Longear Sunfish
RB - Rock Bass / Goggle Eye
RSF - Redear Sunfish
RT - Rainbow Trout
SMB - Smallmouth Bass
WB - White Bass
WF - Whitefish
WL - WalleyeThe classic River Trips application is still available for use. It is updated with the new system using a data retrofit. It is no longer maintained. The original River Trips application is no longer updated (as of 1 Dec 2016) but can be checked for errors or for the condition of the data before it was converted to the new system.
| Observation | Height | Discharge | Maximum Discharge | Minimum Discharge | Mean Discharge | P05 | P10 | P20 | P25 | P50 (Median) | P75 | P80 | P90 | P95 |
|---|---|---|---|---|---|---|---|---|---|---|---|---|---|---|
| 2026-05-10 06:30 | 2.75 | 48 | 4230 (2006) | 10 (2000) | 351 | 11 | 16 | 49 | 74 | 137 | 270 | 299 | 638 | 3100 |
| 2026-05-10 05:30 | 2.76 | 50 | 4230 (2006) | 10 (2000) | 351 | 11 | 16 | 49 | 74 | 137 | 270 | 299 | 638 | 3100 |
| 2026-05-10 04:30 | 2.76 | 50 | 4230 (2006) | 10 (2000) | 351 | 11 | 16 | 49 | 74 | 137 | 270 | 299 | 638 | 3100 |
| 2026-05-10 03:30 | 2.76 | 50 | 4230 (2006) | 10 (2000) | 351 | 11 | 16 | 49 | 74 | 137 | 270 | 299 | 638 | 3100 |
| 2026-05-10 02:30 | 2.77 | 51 | 4230 (2006) | 10 (2000) | 351 | 11 | 16 | 49 | 74 | 137 | 270 | 299 | 638 | 3100 |
| 2026-05-10 01:30 | 2.77 | 51 | 4230 (2006) | 10 (2000) | 351 | 11 | 16 | 49 | 74 | 137 | 270 | 299 | 638 | 3100 |
| 2026-05-10 00:30 | 2.77 | 51 | 4230 (2006) | 10 (2000) | 351 | 11 | 16 | 49 | 74 | 137 | 270 | 299 | 638 | 3100 |
| 2026-05-09 23:30 | 2.77 | 51 | 4230 (2006) | 10 (2000) | 351 | 11 | 16 | 49 | 74 | 137 | 270 | 299 | 638 | 3100 |
| 2026-05-09 22:30 | 2.77 | 51 | 2230 (2002) | 10 (2000) | 299 | 11 | 17 | 43 | 58 | 147 | 307 | 411 | 750 | 1840 |
| 2026-05-09 21:30 | 2.77 | 51 | 2230 (2002) | 10 (2000) | 299 | 11 | 17 | 43 | 58 | 147 | 307 | 411 | 750 | 1840 |
| 2026-05-09 20:30 | 2.78 | 53 | 2230 (2002) | 10 (2000) | 299 | 11 | 17 | 43 | 58 | 147 | 307 | 411 | 750 | 1840 |
| 2026-05-09 19:30 | 2.77 | 51 | 2230 (2002) | 10 (2000) | 299 | 11 | 17 | 43 | 58 | 147 | 307 | 411 | 750 | 1840 |
| 2026-05-09 18:30 | 2.78 | 53 | 2230 (2002) | 10 (2000) | 299 | 11 | 17 | 43 | 58 | 147 | 307 | 411 | 750 | 1840 |
| 2026-05-09 17:30 | 2.78 | 53 | 2230 (2002) | 10 (2000) | 299 | 11 | 17 | 43 | 58 | 147 | 307 | 411 | 750 | 1840 |
| 2026-05-09 16:30 | 2.78 | 53 | 2230 (2002) | 10 (2000) | 299 | 11 | 17 | 43 | 58 | 147 | 307 | 411 | 750 | 1840 |
| 2026-05-09 15:30 | 2.78 | 53 | 2230 (2002) | 10 (2000) | 299 | 11 | 17 | 43 | 58 | 147 | 307 | 411 | 750 | 1840 |
| 2026-05-09 14:30 | 2.78 | 53 | 2230 (2002) | 10 (2000) | 299 | 11 | 17 | 43 | 58 | 147 | 307 | 411 | 750 | 1840 |
| 2026-05-09 13:30 | 2.79 | 54 | 2230 (2002) | 10 (2000) | 299 | 11 | 17 | 43 | 58 | 147 | 307 | 411 | 750 | 1840 |
| 2026-05-09 12:30 | 2.79 | 54 | 2230 (2002) | 10 (2000) | 299 | 11 | 17 | 43 | 58 | 147 | 307 | 411 | 750 | 1840 |
| 2026-05-09 11:30 | 2.79 | 54 | 2230 (2002) | 10 (2000) | 299 | 11 | 17 | 43 | 58 | 147 | 307 | 411 | 750 | 1840 |
| 2026-05-09 10:30 | 2.79 | 54 | 2230 (2002) | 10 (2000) | 299 | 11 | 17 | 43 | 58 | 147 | 307 | 411 | 750 | 1840 |
| 2026-05-09 09:30 | 2.78 | 53 | 2230 (2002) | 10 (2000) | 299 | 11 | 17 | 43 | 58 | 147 | 307 | 411 | 750 | 1840 |
| 2026-05-09 08:30 | 2.79 | 54 | 2230 (2002) | 10 (2000) | 299 | 11 | 17 | 43 | 58 | 147 | 307 | 411 | 750 | 1840 |
| 2026-05-09 07:30 | 2.79 | 54 | 2230 (2002) | 10 (2000) | 299 | 11 | 17 | 43 | 58 | 147 | 307 | 411 | 750 | 1840 |
| 2026-05-09 06:30 | 2.79 | 54 | 2230 (2002) | 10 (2000) | 299 | 11 | 17 | 43 | 58 | 147 | 307 | 411 | 750 | 1840 |
| 2026-05-09 05:30 | 2.79 | 54 | 2230 (2002) | 10 (2000) | 299 | 11 | 17 | 43 | 58 | 147 | 307 | 411 | 750 | 1840 |
| 2026-05-09 04:30 | 2.79 | 54 | 2230 (2002) | 10 (2000) | 299 | 11 | 17 | 43 | 58 | 147 | 307 | 411 | 750 | 1840 |
| 2026-05-09 03:30 | 2.79 | 54 | 2230 (2002) | 10 (2000) | 299 | 11 | 17 | 43 | 58 | 147 | 307 | 411 | 750 | 1840 |
| 2026-05-09 02:30 | 2.79 | 54 | 2230 (2002) | 10 (2000) | 299 | 11 | 17 | 43 | 58 | 147 | 307 | 411 | 750 | 1840 |
| 2026-05-09 01:30 | 2.79 | 54 | 2230 (2002) | 10 (2000) | 299 | 11 | 17 | 43 | 58 | 147 | 307 | 411 | 750 | 1840 |
| 2026-05-09 00:30 | 2.79 | 54 | 2230 (2002) | 10 (2000) | 299 | 11 | 17 | 43 | 58 | 147 | 307 | 411 | 750 | 1840 |
| 2026-05-08 23:30 | 2.80 | 56 | 2230 (2002) | 10 (2000) | 299 | 11 | 17 | 43 | 58 | 147 | 307 | 411 | 750 | 1840 |
| 2026-05-08 22:30 | 2.80 | 56 | 7580 (2002) | 10 (2000) | 568 | 12 | 18 | 44 | 49 | 174 | 389 | 485 | 1240 | 5510 |
| 2026-05-08 21:30 | 2.77 | 51 | 7580 (2002) | 10 (2000) | 568 | 12 | 18 | 44 | 49 | 174 | 389 | 485 | 1240 | 5510 |
| 2026-05-08 20:30 | 2.77 | 51 | 7580 (2002) | 10 (2000) | 568 | 12 | 18 | 44 | 49 | 174 | 389 | 485 | 1240 | 5510 |
| 2026-05-08 19:30 | 2.77 | 51 | 7580 (2002) | 10 (2000) | 568 | 12 | 18 | 44 | 49 | 174 | 389 | 485 | 1240 | 5510 |
| 2026-05-08 18:30 | 2.78 | 53 | 7580 (2002) | 10 (2000) | 568 | 12 | 18 | 44 | 49 | 174 | 389 | 485 | 1240 | 5510 |
| 2026-05-08 17:30 | 2.78 | 53 | 7580 (2002) | 10 (2000) | 568 | 12 | 18 | 44 | 49 | 174 | 389 | 485 | 1240 | 5510 |
| 2026-05-08 16:30 | 2.78 | 53 | 7580 (2002) | 10 (2000) | 568 | 12 | 18 | 44 | 49 | 174 | 389 | 485 | 1240 | 5510 |
| 2026-05-08 15:30 | 2.78 | 53 | 7580 (2002) | 10 (2000) | 568 | 12 | 18 | 44 | 49 | 174 | 389 | 485 | 1240 | 5510 |
| 2026-05-08 14:30 | 2.78 | 53 | 7580 (2002) | 10 (2000) | 568 | 12 | 18 | 44 | 49 | 174 | 389 | 485 | 1240 | 5510 |
| 2026-05-08 13:30 | 2.78 | 53 | 7580 (2002) | 10 (2000) | 568 | 12 | 18 | 44 | 49 | 174 | 389 | 485 | 1240 | 5510 |
| 2026-05-08 12:30 | 2.79 | 54 | 7580 (2002) | 10 (2000) | 568 | 12 | 18 | 44 | 49 | 174 | 389 | 485 | 1240 | 5510 |
| 2026-05-08 11:30 | 2.79 | 54 | 7580 (2002) | 10 (2000) | 568 | 12 | 18 | 44 | 49 | 174 | 389 | 485 | 1240 | 5510 |
| 2026-05-08 10:30 | 2.78 | 53 | 7580 (2002) | 10 (2000) | 568 | 12 | 18 | 44 | 49 | 174 | 389 | 485 | 1240 | 5510 |
| 2026-05-08 09:30 | 2.79 | 54 | 7580 (2002) | 10 (2000) | 568 | 12 | 18 | 44 | 49 | 174 | 389 | 485 | 1240 | 5510 |
| 2026-05-08 08:30 | 2.79 | 54 | 7580 (2002) | 10 (2000) | 568 | 12 | 18 | 44 | 49 | 174 | 389 | 485 | 1240 | 5510 |
| 2026-05-08 07:30 | 2.79 | 54 | 7580 (2002) | 10 (2000) | 568 | 12 | 18 | 44 | 49 | 174 | 389 | 485 | 1240 | 5510 |
| 2026-05-08 06:30 | 2.79 | 54 | 7580 (2002) | 10 (2000) | 568 | 12 | 18 | 44 | 49 | 174 | 389 | 485 | 1240 | 5510 |
| 2026-05-08 05:30 | 2.79 | 54 | 7580 (2002) | 10 (2000) | 568 | 12 | 18 | 44 | 49 | 174 | 389 | 485 | 1240 | 5510 |
| 2026-05-08 04:30 | 2.79 | 54 | 7580 (2002) | 10 (2000) | 568 | 12 | 18 | 44 | 49 | 174 | 389 | 485 | 1240 | 5510 |
| 2026-05-08 03:30 | 2.79 | 54 | 7580 (2002) | 10 (2000) | 568 | 12 | 18 | 44 | 49 | 174 | 389 | 485 | 1240 | 5510 |
| 2026-05-08 02:30 | 2.80 | 56 | 7580 (2002) | 10 (2000) | 568 | 12 | 18 | 44 | 49 | 174 | 389 | 485 | 1240 | 5510 |
| 2026-05-08 01:30 | 2.79 | 54 | 7580 (2002) | 10 (2000) | 568 | 12 | 18 | 44 | 49 | 174 | 389 | 485 | 1240 | 5510 |
| 2026-05-08 00:30 | 2.80 | 56 | 7580 (2002) | 10 (2000) | 568 | 12 | 18 | 44 | 49 | 174 | 389 | 485 | 1240 | 5510 |
| 2026-05-07 23:30 | 2.80 | 56 | 7580 (2002) | 10 (2000) | 568 | 12 | 18 | 44 | 49 | 174 | 389 | 485 | 1240 | 5510 |
| 2026-05-07 22:30 | 2.80 | 56 | 879 (2024) | 11 (2000) | 235 | 13 | 19 | 43 | 54 | 193 | 331 | 382 | 615 | 839 |
| 2026-05-07 21:30 | 2.80 | 56 | 879 (2024) | 11 (2000) | 235 | 13 | 19 | 43 | 54 | 193 | 331 | 382 | 615 | 839 |
| 2026-05-07 20:30 | 2.81 | 57 | 879 (2024) | 11 (2000) | 235 | 13 | 19 | 43 | 54 | 193 | 331 | 382 | 615 | 839 |
| 2026-05-07 19:30 | 2.81 | 57 | 879 (2024) | 11 (2000) | 235 | 13 | 19 | 43 | 54 | 193 | 331 | 382 | 615 | 839 |
| 2026-05-07 18:30 | 2.81 | 57 | 879 (2024) | 11 (2000) | 235 | 13 | 19 | 43 | 54 | 193 | 331 | 382 | 615 | 839 |
| 2026-05-07 17:30 | 2.81 | 57 | 879 (2024) | 11 (2000) | 235 | 13 | 19 | 43 | 54 | 193 | 331 | 382 | 615 | 839 |
| 2026-05-07 16:30 | 2.81 | 57 | 879 (2024) | 11 (2000) | 235 | 13 | 19 | 43 | 54 | 193 | 331 | 382 | 615 | 839 |
| 2026-05-07 15:30 | 2.81 | 57 | 879 (2024) | 11 (2000) | 235 | 13 | 19 | 43 | 54 | 193 | 331 | 382 | 615 | 839 |
| 2026-05-07 14:30 | 2.82 | 59 | 879 (2024) | 11 (2000) | 235 | 13 | 19 | 43 | 54 | 193 | 331 | 382 | 615 | 839 |
| 2026-05-07 13:30 | 2.82 | 59 | 879 (2024) | 11 (2000) | 235 | 13 | 19 | 43 | 54 | 193 | 331 | 382 | 615 | 839 |
| 2026-05-07 12:30 | 2.82 | 59 | 879 (2024) | 11 (2000) | 235 | 13 | 19 | 43 | 54 | 193 | 331 | 382 | 615 | 839 |
| 2026-05-07 11:30 | 2.82 | 59 | 879 (2024) | 11 (2000) | 235 | 13 | 19 | 43 | 54 | 193 | 331 | 382 | 615 | 839 |
| 2026-05-07 10:30 | 2.82 | 59 | 879 (2024) | 11 (2000) | 235 | 13 | 19 | 43 | 54 | 193 | 331 | 382 | 615 | 839 |
| 2026-05-07 09:30 | 2.82 | 59 | 879 (2024) | 11 (2000) | 235 | 13 | 19 | 43 | 54 | 193 | 331 | 382 | 615 | 839 |
| 2026-05-07 08:30 | 2.83 | 60 | 879 (2024) | 11 (2000) | 235 | 13 | 19 | 43 | 54 | 193 | 331 | 382 | 615 | 839 |
| 2026-05-07 07:30 | 2.83 | 60 | 879 (2024) | 11 (2000) | 235 | 13 | 19 | 43 | 54 | 193 | 331 | 382 | 615 | 839 |
| 2026-05-07 06:30 | 2.83 | 60 | 879 (2024) | 11 (2000) | 235 | 13 | 19 | 43 | 54 | 193 | 331 | 382 | 615 | 839 |
| 2026-05-07 05:30 | 2.83 | 60 | 879 (2024) | 11 (2000) | 235 | 13 | 19 | 43 | 54 | 193 | 331 | 382 | 615 | 839 |
| 2026-05-07 04:30 | 2.83 | 60 | 879 (2024) | 11 (2000) | 235 | 13 | 19 | 43 | 54 | 193 | 331 | 382 | 615 | 839 |
| 2026-05-07 03:30 | 2.83 | 60 | 879 (2024) | 11 (2000) | 235 | 13 | 19 | 43 | 54 | 193 | 331 | 382 | 615 | 839 |
| 2026-05-07 02:30 | 2.84 | 62 | 879 (2024) | 11 (2000) | 235 | 13 | 19 | 43 | 54 | 193 | 331 | 382 | 615 | 839 |
| 2026-05-07 01:30 | 2.84 | 62 | 879 (2024) | 11 (2000) | 235 | 13 | 19 | 43 | 54 | 193 | 331 | 382 | 615 | 839 |
| 2026-05-07 00:30 | 2.84 | 62 | 879 (2024) | 11 (2000) | 235 | 13 | 19 | 43 | 54 | 193 | 331 | 382 | 615 | 839 |
| 2026-05-06 23:30 | 2.84 | 62 | 879 (2024) | 11 (2000) | 235 | 13 | 19 | 43 | 54 | 193 | 331 | 382 | 615 | 839 |
| 2026-05-06 22:30 | 2.85 | 63 | 3780 (2022) | 10 (2000) | 335 | 12 | 20 | 46 | 59 | 175 | 330 | 388 | 564 | 2660 |
| 2026-05-06 21:30 | 2.85 | 63 | 3780 (2022) | 10 (2000) | 335 | 12 | 20 | 46 | 59 | 175 | 330 | 388 | 564 | 2660 |
| 2026-05-06 20:30 | 2.85 | 63 | 3780 (2022) | 10 (2000) | 335 | 12 | 20 | 46 | 59 | 175 | 330 | 388 | 564 | 2660 |
| 2026-05-06 19:30 | 2.85 | 63 | 3780 (2022) | 10 (2000) | 335 | 12 | 20 | 46 | 59 | 175 | 330 | 388 | 564 | 2660 |
| 2026-05-06 18:30 | 2.85 | 63 | 3780 (2022) | 10 (2000) | 335 | 12 | 20 | 46 | 59 | 175 | 330 | 388 | 564 | 2660 |
| 2026-05-06 17:30 | 2.86 | 65 | 3780 (2022) | 10 (2000) | 335 | 12 | 20 | 46 | 59 | 175 | 330 | 388 | 564 | 2660 |
| 2026-05-06 16:30 | 2.87 | 67 | 3780 (2022) | 10 (2000) | 335 | 12 | 20 | 46 | 59 | 175 | 330 | 388 | 564 | 2660 |
| 2026-05-06 15:30 | 2.86 | 65 | 3780 (2022) | 10 (2000) | 335 | 12 | 20 | 46 | 59 | 175 | 330 | 388 | 564 | 2660 |
| 2026-05-06 14:30 | 2.86 | 65 | 3780 (2022) | 10 (2000) | 335 | 12 | 20 | 46 | 59 | 175 | 330 | 388 | 564 | 2660 |
| 2026-05-06 13:30 | 2.87 | 67 | 3780 (2022) | 10 (2000) | 335 | 12 | 20 | 46 | 59 | 175 | 330 | 388 | 564 | 2660 |
| 2026-05-06 12:30 | 2.87 | 67 | 3780 (2022) | 10 (2000) | 335 | 12 | 20 | 46 | 59 | 175 | 330 | 388 | 564 | 2660 |
| 2026-05-06 11:30 | 2.87 | 67 | 3780 (2022) | 10 (2000) | 335 | 12 | 20 | 46 | 59 | 175 | 330 | 388 | 564 | 2660 |
| 2026-05-06 10:30 | 2.88 | 68 | 3780 (2022) | 10 (2000) | 335 | 12 | 20 | 46 | 59 | 175 | 330 | 388 | 564 | 2660 |
| 2026-05-06 09:30 | 2.88 | 68 | 3780 (2022) | 10 (2000) | 335 | 12 | 20 | 46 | 59 | 175 | 330 | 388 | 564 | 2660 |
| 2026-05-06 08:30 | 2.88 | 68 | 3780 (2022) | 10 (2000) | 335 | 12 | 20 | 46 | 59 | 175 | 330 | 388 | 564 | 2660 |
| 2026-05-06 07:30 | 2.88 | 68 | 3780 (2022) | 10 (2000) | 335 | 12 | 20 | 46 | 59 | 175 | 330 | 388 | 564 | 2660 |
| 2026-05-06 06:30 | 2.89 | 70 | 3780 (2022) | 10 (2000) | 335 | 12 | 20 | 46 | 59 | 175 | 330 | 388 | 564 | 2660 |
| 2026-05-06 05:30 | 2.89 | 70 | 3780 (2022) | 10 (2000) | 335 | 12 | 20 | 46 | 59 | 175 | 330 | 388 | 564 | 2660 |
| 2026-05-06 04:30 | 2.88 | 68 | 3780 (2022) | 10 (2000) | 335 | 12 | 20 | 46 | 59 | 175 | 330 | 388 | 564 | 2660 |
| 2026-05-06 03:30 | 2.89 | 70 | 3780 (2022) | 10 (2000) | 335 | 12 | 20 | 46 | 59 | 175 | 330 | 388 | 564 | 2660 |
| 2026-05-06 02:30 | 2.89 | 70 | 3780 (2022) | 10 (2000) | 335 | 12 | 20 | 46 | 59 | 175 | 330 | 388 | 564 | 2660 |
| 2026-05-06 01:30 | 2.89 | 70 | 3780 (2022) | 10 (2000) | 335 | 12 | 20 | 46 | 59 | 175 | 330 | 388 | 564 | 2660 |
| 2026-05-06 00:30 | 2.89 | 70 | 3780 (2022) | 10 (2000) | 335 | 12 | 20 | 46 | 59 | 175 | 330 | 388 | 564 | 2660 |
| 2026-05-05 23:30 | 2.90 | 71 | 3780 (2022) | 10 (2000) | 335 | 12 | 20 | 46 | 59 | 175 | 330 | 388 | 564 | 2660 |
| 2026-05-05 22:30 | 2.90 | 71 | 5350 (2022) | 11 (2000) | 503 | 12 | 20 | 47 | 64 | 217 | 402 | 538 | 1280 | 4040 |
| 2026-05-05 21:30 | 2.90 | 71 | 5350 (2022) | 11 (2000) | 503 | 12 | 20 | 47 | 64 | 217 | 402 | 538 | 1280 | 4040 |
| 2026-05-05 20:30 | 2.90 | 71 | 5350 (2022) | 11 (2000) | 503 | 12 | 20 | 47 | 64 | 217 | 402 | 538 | 1280 | 4040 |
| 2026-05-05 19:30 | 2.89 | 70 | 5350 (2022) | 11 (2000) | 503 | 12 | 20 | 47 | 64 | 217 | 402 | 538 | 1280 | 4040 |
| 2026-05-05 18:30 | 2.89 | 70 | 5350 (2022) | 11 (2000) | 503 | 12 | 20 | 47 | 64 | 217 | 402 | 538 | 1280 | 4040 |
| 2026-05-05 17:30 | 2.89 | 70 | 5350 (2022) | 11 (2000) | 503 | 12 | 20 | 47 | 64 | 217 | 402 | 538 | 1280 | 4040 |
| 2026-05-05 16:30 | 2.89 | 70 | 5350 (2022) | 11 (2000) | 503 | 12 | 20 | 47 | 64 | 217 | 402 | 538 | 1280 | 4040 |
| 2026-05-05 15:30 | 2.89 | 70 | 5350 (2022) | 11 (2000) | 503 | 12 | 20 | 47 | 64 | 217 | 402 | 538 | 1280 | 4040 |
| 2026-05-05 14:30 | 2.89 | 70 | 5350 (2022) | 11 (2000) | 503 | 12 | 20 | 47 | 64 | 217 | 402 | 538 | 1280 | 4040 |
| 2026-05-05 13:30 | 2.89 | 70 | 5350 (2022) | 11 (2000) | 503 | 12 | 20 | 47 | 64 | 217 | 402 | 538 | 1280 | 4040 |
| 2026-05-05 12:30 | 2.90 | 71 | 5350 (2022) | 11 (2000) | 503 | 12 | 20 | 47 | 64 | 217 | 402 | 538 | 1280 | 4040 |
| 2026-05-05 11:30 | 2.90 | 71 | 5350 (2022) | 11 (2000) | 503 | 12 | 20 | 47 | 64 | 217 | 402 | 538 | 1280 | 4040 |
| 2026-05-05 10:30 | 2.90 | 71 | 5350 (2022) | 11 (2000) | 503 | 12 | 20 | 47 | 64 | 217 | 402 | 538 | 1280 | 4040 |
| 2026-05-05 09:30 | 2.90 | 71 | 5350 (2022) | 11 (2000) | 503 | 12 | 20 | 47 | 64 | 217 | 402 | 538 | 1280 | 4040 |
| 2026-05-05 08:30 | 2.90 | 71 | 5350 (2022) | 11 (2000) | 503 | 12 | 20 | 47 | 64 | 217 | 402 | 538 | 1280 | 4040 |
| 2026-05-05 07:30 | 2.91 | 72 | 5350 (2022) | 11 (2000) | 503 | 12 | 20 | 47 | 64 | 217 | 402 | 538 | 1280 | 4040 |
| 2026-05-05 06:30 | 2.90 | 71 | 5350 (2022) | 11 (2000) | 503 | 12 | 20 | 47 | 64 | 217 | 402 | 538 | 1280 | 4040 |
| 2026-05-05 05:30 | 2.91 | 72 | 5350 (2022) | 11 (2000) | 503 | 12 | 20 | 47 | 64 | 217 | 402 | 538 | 1280 | 4040 |
| 2026-05-05 04:30 | 2.91 | 72 | 5350 (2022) | 11 (2000) | 503 | 12 | 20 | 47 | 64 | 217 | 402 | 538 | 1280 | 4040 |
| 2026-05-05 03:30 | 2.91 | 72 | 5350 (2022) | 11 (2000) | 503 | 12 | 20 | 47 | 64 | 217 | 402 | 538 | 1280 | 4040 |
| 2026-05-05 02:30 | 2.92 | 74 | 5350 (2022) | 11 (2000) | 503 | 12 | 20 | 47 | 64 | 217 | 402 | 538 | 1280 | 4040 |
| 2026-05-05 01:30 | 2.92 | 74 | 5350 (2022) | 11 (2000) | 503 | 12 | 20 | 47 | 64 | 217 | 402 | 538 | 1280 | 4040 |
| 2026-05-05 00:30 | 2.92 | 74 | 5350 (2022) | 11 (2000) | 503 | 12 | 20 | 47 | 64 | 217 | 402 | 538 | 1280 | 4040 |
| 2026-05-04 23:30 | 2.92 | 74 | 5350 (2022) | 11 (2000) | 503 | 12 | 20 | 47 | 64 | 217 | 402 | 538 | 1280 | 4040 |
| 2026-05-04 22:30 | 2.93 | 75 | 5460 (2017) | 11 (2000) | 514 | 13 | 21 | 48 | 70 | 229 | 513 | 586 | 1120 | 3940 |
| 2026-05-04 21:30 | 2.93 | 75 | 5460 (2017) | 11 (2000) | 514 | 13 | 21 | 48 | 70 | 229 | 513 | 586 | 1120 | 3940 |
| 2026-05-04 20:30 | 2.93 | 75 | 5460 (2017) | 11 (2000) | 514 | 13 | 21 | 48 | 70 | 229 | 513 | 586 | 1120 | 3940 |
| 2026-05-04 19:30 | 2.93 | 75 | 5460 (2017) | 11 (2000) | 514 | 13 | 21 | 48 | 70 | 229 | 513 | 586 | 1120 | 3940 |
| 2026-05-04 18:30 | 2.93 | 75 | 5460 (2017) | 11 (2000) | 514 | 13 | 21 | 48 | 70 | 229 | 513 | 586 | 1120 | 3940 |
| 2026-05-04 17:30 | 2.94 | 77 | 5460 (2017) | 11 (2000) | 514 | 13 | 21 | 48 | 70 | 229 | 513 | 586 | 1120 | 3940 |
| 2026-05-04 16:30 | 2.94 | 77 | 5460 (2017) | 11 (2000) | 514 | 13 | 21 | 48 | 70 | 229 | 513 | 586 | 1120 | 3940 |
| 2026-05-04 15:30 | 2.94 | 77 | 5460 (2017) | 11 (2000) | 514 | 13 | 21 | 48 | 70 | 229 | 513 | 586 | 1120 | 3940 |
| 2026-05-04 14:30 | 2.95 | 78 | 5460 (2017) | 11 (2000) | 514 | 13 | 21 | 48 | 70 | 229 | 513 | 586 | 1120 | 3940 |
| 2026-05-04 13:30 | 2.94 | 77 | 5460 (2017) | 11 (2000) | 514 | 13 | 21 | 48 | 70 | 229 | 513 | 586 | 1120 | 3940 |
| 2026-05-04 12:30 | 2.95 | 78 | 5460 (2017) | 11 (2000) | 514 | 13 | 21 | 48 | 70 | 229 | 513 | 586 | 1120 | 3940 |
| 2026-05-04 11:30 | 2.95 | 78 | 5460 (2017) | 11 (2000) | 514 | 13 | 21 | 48 | 70 | 229 | 513 | 586 | 1120 | 3940 |
| 2026-05-04 10:30 | 2.95 | 78 | 5460 (2017) | 11 (2000) | 514 | 13 | 21 | 48 | 70 | 229 | 513 | 586 | 1120 | 3940 |
| 2026-05-04 09:30 | 2.95 | 78 | 5460 (2017) | 11 (2000) | 514 | 13 | 21 | 48 | 70 | 229 | 513 | 586 | 1120 | 3940 |
| 2026-05-04 08:30 | 2.96 | 80 | 5460 (2017) | 11 (2000) | 514 | 13 | 21 | 48 | 70 | 229 | 513 | 586 | 1120 | 3940 |
| 2026-05-04 07:30 | 2.96 | 80 | 5460 (2017) | 11 (2000) | 514 | 13 | 21 | 48 | 70 | 229 | 513 | 586 | 1120 | 3940 |
| 2026-05-04 06:30 | 2.96 | 80 | 5460 (2017) | 11 (2000) | 514 | 13 | 21 | 48 | 70 | 229 | 513 | 586 | 1120 | 3940 |
| 2026-05-04 05:30 | 2.97 | 81 | 5460 (2017) | 11 (2000) | 514 | 13 | 21 | 48 | 70 | 229 | 513 | 586 | 1120 | 3940 |
| 2026-05-04 04:30 | 2.97 | 81 | 5460 (2017) | 11 (2000) | 514 | 13 | 21 | 48 | 70 | 229 | 513 | 586 | 1120 | 3940 |
| 2026-05-04 03:30 | 2.97 | 81 | 5460 (2017) | 11 (2000) | 514 | 13 | 21 | 48 | 70 | 229 | 513 | 586 | 1120 | 3940 |
| 2026-05-04 02:30 | 2.97 | 81 | 5460 (2017) | 11 (2000) | 514 | 13 | 21 | 48 | 70 | 229 | 513 | 586 | 1120 | 3940 |
| 2026-05-04 01:30 | 2.97 | 81 | 5460 (2017) | 11 (2000) | 514 | 13 | 21 | 48 | 70 | 229 | 513 | 586 | 1120 | 3940 |
| 2026-05-04 00:30 | 2.98 | 83 | 5460 (2017) | 11 (2000) | 514 | 13 | 21 | 48 | 70 | 229 | 513 | 586 | 1120 | 3940 |
| 2026-05-03 23:30 | 2.98 | 83 | 5460 (2017) | 11 (2000) | 514 | 13 | 21 | 48 | 70 | 229 | 513 | 586 | 1120 | 3940 |
| 2026-05-03 22:30 | 2.98 | 83 | 994 (2017) | 11 (2000) | 287 | 13 | 23 | 51 | 80 | 175 | 477 | 523 | 900 | 982 |
| 2026-05-03 21:30 | 2.98 | 83 | 994 (2017) | 11 (2000) | 287 | 13 | 23 | 51 | 80 | 175 | 477 | 523 | 900 | 982 |
| 2026-05-03 20:30 | 2.99 | 85 | 994 (2017) | 11 (2000) | 287 | 13 | 23 | 51 | 80 | 175 | 477 | 523 | 900 | 982 |
| 2026-05-03 19:30 | 2.99 | 85 | 994 (2017) | 11 (2000) | 287 | 13 | 23 | 51 | 80 | 175 | 477 | 523 | 900 | 982 |
| 2026-05-03 18:30 | 2.99 | 85 | 994 (2017) | 11 (2000) | 287 | 13 | 23 | 51 | 80 | 175 | 477 | 523 | 900 | 982 |
| 2026-05-03 17:30 | 3.00 | 86 | 994 (2017) | 11 (2000) | 287 | 13 | 23 | 51 | 80 | 175 | 477 | 523 | 900 | 982 |
| 2026-05-03 16:30 | 3.00 | 86 | 994 (2017) | 11 (2000) | 287 | 13 | 23 | 51 | 80 | 175 | 477 | 523 | 900 | 982 |
| 2026-05-03 15:30 | 3.00 | 86 | 994 (2017) | 11 (2000) | 287 | 13 | 23 | 51 | 80 | 175 | 477 | 523 | 900 | 982 |
| 2026-05-03 14:30 | 3.00 | 86 | 994 (2017) | 11 (2000) | 287 | 13 | 23 | 51 | 80 | 175 | 477 | 523 | 900 | 982 |
| 2026-05-03 13:30 | 3.00 | 86 | 994 (2017) | 11 (2000) | 287 | 13 | 23 | 51 | 80 | 175 | 477 | 523 | 900 | 982 |
| 2026-05-03 12:30 | 3.01 | 88 | 994 (2017) | 11 (2000) | 287 | 13 | 23 | 51 | 80 | 175 | 477 | 523 | 900 | 982 |
| 2026-05-03 11:30 | 3.01 | 88 | 994 (2017) | 11 (2000) | 287 | 13 | 23 | 51 | 80 | 175 | 477 | 523 | 900 | 982 |
| 2026-05-03 10:30 | 3.02 | 89 | 994 (2017) | 11 (2000) | 287 | 13 | 23 | 51 | 80 | 175 | 477 | 523 | 900 | 982 |
| 2026-05-03 09:30 | 3.02 | 89 | 994 (2017) | 11 (2000) | 287 | 13 | 23 | 51 | 80 | 175 | 477 | 523 | 900 | 982 |
| 2026-05-03 08:30 | 3.02 | 89 | 994 (2017) | 11 (2000) | 287 | 13 | 23 | 51 | 80 | 175 | 477 | 523 | 900 | 982 |
| 2026-05-03 07:30 | 3.02 | 89 | 994 (2017) | 11 (2000) | 287 | 13 | 23 | 51 | 80 | 175 | 477 | 523 | 900 | 982 |
| 2026-05-03 06:30 | 3.03 | 91 | 994 (2017) | 11 (2000) | 287 | 13 | 23 | 51 | 80 | 175 | 477 | 523 | 900 | 982 |
| 2026-05-03 05:30 | 3.03 | 91 | 994 (2017) | 11 (2000) | 287 | 13 | 23 | 51 | 80 | 175 | 477 | 523 | 900 | 982 |
| 2026-05-03 04:30 | 3.03 | 91 | 994 (2017) | 11 (2000) | 287 | 13 | 23 | 51 | 80 | 175 | 477 | 523 | 900 | 982 |
| 2026-05-03 03:30 | 3.04 | 93 | 994 (2017) | 11 (2000) | 287 | 13 | 23 | 51 | 80 | 175 | 477 | 523 | 900 | 982 |
| 2026-05-03 02:30 | 3.04 | 93 | 994 (2017) | 11 (2000) | 287 | 13 | 23 | 51 | 80 | 175 | 477 | 523 | 900 | 982 |
| 2026-05-03 01:30 | 3.04 | 93 | 994 (2017) | 11 (2000) | 287 | 13 | 23 | 51 | 80 | 175 | 477 | 523 | 900 | 982 |
| 2026-05-03 00:30 | 3.04 | 93 | 994 (2017) | 11 (2000) | 287 | 13 | 23 | 51 | 80 | 175 | 477 | 523 | 900 | 982 |
| 2026-05-02 23:30 | 3.05 | 94 | 994 (2017) | 11 (2000) | 287 | 13 | 23 | 51 | 80 | 175 | 477 | 523 | 900 | 982 |
A total of 176 rows are displayed for years 2000 through 2025.